Startpagina
METAR-TAF:

METAR-TAF

Vliegvelden :

Luchthaven Katowice

Katowice, Polen

breedte: 50-28-27N, lengte: 019-04-48E, hoogte: 284 m

Actueel weer

Dit bericht is 8 minuten geleden gemaakt, om 03:00 UTC
Wind 1 kt uit variabele richting
Temperatuur 4°C
Vochtigheid 93%
Druk 1012 hPa
Zicht: 7000 m

METAR: EPKT 250300Z VRB01KT 7000 NSC 04/03 Q1012

Tijdstip: 05:08 (03:08 UTC)

Verwachting

Dit bericht is 3 uur en het 38 minuten geleden gemaakt, om 23:30 UTC
Verwachting geldig van 25 om 00 UTC tot 25 om 24 UTC
Wind 2 kt uit variabele richting
Zicht: 5000 m
nevel
Tijdelijke
van 25 om 00 UTC tot 25 om 06 UTC
Zicht: 0600 m
mist
Kans 40%
van 25 om 00 UTC tot 25 om 05 UTC
Zicht: 0200 m
mist
Wijzigt naar
van 25 om 07 UTC tot 25 om 10 UTC
Wind 10 kt uit het westnoordwesten
Tijdelijke
van 25 om 13 UTC tot 25 om 21 UTC
Gebroken wolken op 2500 ft, Cumulonimbus.
regenbuien

TAF: EPKT 242330Z 2500/2524 VRB02KT 5000 BR NSC TEMPO 2500/2506 0600 FG PROB40 2500/2505 0200 FG BECMG 2507/2510 30010KT TEMPO 2513/2521 SHRA BKN025CB

Waarnemingen en weersverwachtingen van meer dan 4000 vliegvelden (METAR en TAF).

De beschikbare stations zijn de gele en rode punten op de kaart.

Ga met uw muis naar het station om de naam te zien.

Klik dan om waarnemingen en weersverwachtingen te zien.

kaart wijzigen: klik op de groene knoppen met een zwart kruis om in te zoomen, op de groene knop met een streepje om uit te zoomen of op de groene pijlen voor aangrenzende kaarten.


METAR-TAF: